Time;durP1;ratioP1;P1;durP2;ratioP2;P2;SDS_P1;SDS_P2;PMS_P1;PMS_P2;Temp;Humidity;BMP_temperature;BMP_pressure;BME280_temperature;BME280_humidity;BME280_pressure;Samples;Min_cycle;Max_cycle;Signal;HPM_P1;HPM_P2
2023/10/30 00:01:54;;;;;;;2.13;1.80;;;;;;;12.32;94.21;97003.94;5048418;28;20250;-75
2023/10/30 00:04:20;;;;;;;1.80;1.70;;;;;;;12.25;94.62;97003.22;5048834;28;20220;-75
2023/10/30 00:06:47;;;;;;;3.22;2.28;;;;;;;12.30;94.13;96994.38;5047986;28;20562;-76
2023/10/30 00:09:15;;;;;;;1.83;1.73;;;;;;;12.28;93.84;96981.06;5047870;28;20256;-75
2023/10/30 00:11:42;;;;;;;1.92;1.83;;;;;;;12.38;93.65;96985.84;5047612;28;20208;-75
2023/10/30 00:14:08;;;;;;;2.90;1.60;;;;;;;12.33;92.97;96977.63;5047444;28;20189;-75
2023/10/30 00:16:35;;;;;;;1.60;1.50;;;;;;;12.55;92.45;96983.22;5050407;28;20221;-75
2023/10/30 00:19:04;;;;;;;1.63;1.43;;;;;;;12.44;93.21;97003.91;5048205;28;20275;-75
2023/10/30 00:21:31;;;;;;;1.20;1.10;;;;;;;12.58;92.06;96991.72;5048155;28;20444;-75
2023/10/30 00:23:58;;;;;;;1.60;1.50;;;;;;;12.70;91.55;97013.38;5049674;28;20447;-75
2023/10/30 00:26:26;;;;;;;1.50;1.40;;;;;;;12.87;90.57;97002.59;5050757;28;20807;-75
2023/10/30 00:28:52;;;;;;;1.58;1.48;;;;;;;12.62;91.15;97006.47;5042490;28;20226;-75
2023/10/30 00:31:19;;;;;;;1.55;1.45;;;;;;;12.50;91.78;96996.69;5047246;28;20205;-75
2023/10/30 00:33:45;;;;;;;1.47;1.27;;;;;;;12.65;91.29;96997.84;5048133;28;20201;-75
2023/10/30 00:36:13;;;;;;;1.38;1.27;;;;;;;12.79;90.43;96977.47;5049264;28;20487;-75
2023/10/30 00:38:39;;;;;;;1.48;1.38;;;;;;;12.75;90.76;96978.19;5048371;28;20234;-75
2023/10/30 00:41:08;;;;;;;1.70;1.60;;;;;;;12.66;90.94;96994.06;5046892;28;20211;-75
2023/10/30 00:43:35;;;;;;;1.83;1.43;;;;;;;12.56;91.52;97001.16;5048640;28;20205;-75
2023/10/30 00:46:01;;;;;;;2.45;1.60;;;;;;;12.50;91.82;96997.50;5045180;28;20462;-74
2023/10/30 00:48:27;;;;;;;3.03;1.80;;;;;;;12.59;91.42;97008.81;5045048;28;20217;-75
2023/10/30 00:50:54;;;;;;;2.03;1.70;;;;;;;12.73;90.72;97024.59;5047718;28;20209;-75
2023/10/30 00:53:22;;;;;;;1.67;1.58;;;;;;;12.55;91.61;97030.19;5048276;28;20530;-74
2023/10/30 00:55:50;;;;;;;2.55;1.55;;;;;;;12.54;92.23;97031.25;5048331;28;20671;-75
2023/10/30 00:58:16;;;;;;;1.60;1.50;;;;;;;12.65;91.21;97037.72;5047962;28;20220;-75
2023/10/30 01:00:43;;;;;;;1.80;1.70;;;;;;;12.73;91.07;97043.59;5048640;28;20223;-75
2023/10/30 01:03:09;;;;;;;1.50;1.40;;;;;;;12.72;90.77;97039.22;5050699;28;20527;-75
2023/10/30 01:05:36;;;;;;;1.83;1.73;;;;;;;12.72;91.24;97052.78;5043360;28;20201;-75
2023/10/30 01:08:08;;;;;;;1.97;1.87;;;;;;;12.81;90.38;97057.84;5044925;28;20479;-75
2023/10/30 01:10:36;;;;;;;1.70;1.60;;;;;;;12.83;90.07;97051.13;5047152;28;20537;-75
2023/10/30 01:13:02;;;;;;;1.90;1.80;;;;;;;12.83;90.43;97055.72;5046917;28;20452;-75
2023/10/30 01:15:29;;;;;;;2.10;1.90;;;;;;;12.66;90.82;97051.06;5045141;28;20484;-75
2023/10/30 01:17:56;;;;;;;2.88;2.50;;;;;;;12.53;91.78;97040.47;5048160;28;20871;-75
2023/10/30 01:20:23;;;;;;;1.83;1.73;;;;;;;12.57;92.37;97046.25;5049257;28;20697;-75
2023/10/30 01:22:50;;;;;;;1.90;1.65;;;;;;;12.54;91.66;97033.97;5049350;28;20521;-75
2023/10/30 01:25:16;;;;;;;1.73;1.63;;;;;;;12.41;92.41;97021.47;5042680;28;20215;-75
2023/10/30 01:27:45;;;;;;;1.70;1.50;;;;;;;12.59;91.60;97049.53;5047381;28;20474;-75
2023/10/30 01:30:12;;;;;;;1.60;1.50;;;;;;;12.72;91.94;97041.94;5046462;28;20205;-75
2023/10/30 01:32:39;;;;;;;2.00;1.80;;;;;;;12.84;91.71;97052.78;5041792;28;20540;-75
2023/10/30 01:35:06;;;;;;;1.73;1.60;;;;;;;12.82;91.65;97045.94;5046662;28;20452;-75
2023/10/30 01:37:32;;;;;;;2.10;2.00;;;;;;;12.65;92.21;97054.03;5048085;28;20996;-75
2023/10/30 01:39:59;;;;;;;1.80;1.70;;;;;;;12.77;91.85;97057.50;5062782;28;20467;-75
2023/10/30 01:42:25;;;;;;;1.60;1.50;;;;;;;12.91;91.04;97055.34;5049416;28;20804;-75
2023/10/30 01:44:57;;;;;;;1.80;1.70;;;;;;;12.87;91.68;97054.19;5044224;28;21005;-75
2023/10/30 01:47:24;;;;;;;2.03;1.70;;;;;;;12.84;91.59;97055.50;5046649;28;20476;-74
2023/10/30 01:49:51;;;;;;;1.40;1.30;;;;;;;12.88;91.49;97058.56;5045917;28;20479;-75
2023/10/30 01:52:17;;;;;;;1.67;1.50;;;;;;;12.89;91.05;97057.50;5046823;28;20467;-75
2023/10/30 01:54:45;;;;;;;1.60;1.50;;;;;;;12.81;91.79;97055.97;5044021;28;20812;-75
2023/10/30 01:57:12;;;;;;;1.30;1.20;;;;;;;12.87;91.46;97048.75;5046402;28;20496;-75
2023/10/30 01:59:38;;;;;;;2.13;1.37;;;;;;;12.92;90.88;97048.84;5047842;28;20456;-75
2023/10/30 02:02:06;;;;;;;2.10;1.20;;;;;;;12.93;89.64;97058.66;5043650;28;20456;-75
2023/10/30 02:04:33;;;;;;;2.33;1.93;;;;;;;12.88;89.36;97050.41;5046449;28;21041;-75
2023/10/30 02:06:59;;;;;;;2.03;1.50;;;;;;;12.90;88.68;97045.56;5044926;28;20447;-75
2023/10/30 02:09:26;;;;;;;1.50;1.40;;;;;;;12.92;88.74;97046.16;5045810;28;21292;-75
2023/10/30 02:11:52;;;;;;;1.60;1.50;;;;;;;12.90;89.29;97034.69;5046405;28;20474;-75
2023/10/30 02:14:19;;;;;;;1.80;1.35;;;;;;;12.87;89.57;97032.47;5049113;28;20439;-75
2023/10/30 02:16:45;;;;;;;1.20;1.10;;;;;;;12.89;89.67;97028.44;5046013;28;20213;-75
2023/10/30 02:19:17;;;;;;;1.40;1.30;;;;;;;12.87;89.16;97027.03;5047490;28;20515;-75
2023/10/30 02:21:44;;;;;;;2.80;1.40;;;;;;;12.83;89.25;97021.25;5044106;28;20462;-75
2023/10/30 02:24:12;;;;;;;1.33;1.00;;;;;;;12.84;89.04;97022.06;5045329;28;20463;-75
2023/10/30 02:26:39;;;;;;;1.50;1.40;;;;;;;12.85;89.13;97031.88;5044168;28;20457;-75
2023/10/30 02:29:06;;;;;;;1.40;1.30;;;;;;;12.88;88.91;97032.22;5047235;28;20499;-75
2023/10/30 02:31:33;;;;;;;1.20;1.10;;;;;;;12.85;89.24;97018.31;5046316;28;21649;-75
2023/10/30 02:34:00;;;;;;;2.00;1.30;;;;;;;12.91;89.23;97018.16;5046896;28;20534;-75
2023/10/30 02:36:26;;;;;;;1.17;1.00;;;;;;;12.99;88.30;97015.06;5045388;28;20482;-75
2023/10/30 02:38:53;;;;;;;3.13;1.43;;;;;;;12.94;88.57;97023.13;5044500;28;20571;-75
2023/10/30 02:41:19;;;;;;;2.07;1.40;;;;;;;12.93;88.46;97013.31;5046936;28;20441;-75
2023/10/30 02:43:47;;;;;;;1.30;1.20;;;;;;;12.92;88.21;97008.13;5049967;28;20878;-75
2023/10/30 02:46:14;;;;;;;1.27;1.07;;;;;;;13.00;87.41;97007.72;5044806;28;20461;-75
2023/10/30 02:48:40;;;;;;;1.47;0.80;;;;;;;13.02;87.11;97002.88;5051398;28;21074;-75
2023/10/30 02:51:07;;;;;;;1.37;1.00;;;;;;;12.86;88.42;97009.91;5050441;28;20483;-75
2023/10/30 02:53:33;;;;;;;1.73;1.10;;;;;;;13.04;87.44;97011.59;5051884;28;20449;-75
2023/10/30 02:56:00;;;;;;;1.30;1.20;;;;;;;12.75;89.44;97005.34;5049569;28;20986;-75
2023/10/30 02:58:26;;;;;;;1.73;1.07;;;;;;;12.83;88.65;96998.72;5048954;28;20487;-75
2023/10/30 03:00:55;;;;;;;1.60;1.20;;;;;;;12.71;89.16;96980.56;5049453;28;20453;-75
2023/10/30 03:03:22;;;;;;;1.47;1.30;;;;;;;12.93;88.00;96979.91;5047370;28;20503;-75
2023/10/30 03:05:48;;;;;;;3.43;1.40;;;;;;;13.02;87.65;96997.44;5050440;28;21434;-75
2023/10/30 03:08:15;;;;;;;1.97;1.33;;;;;;;13.00;87.33;96999.56;5051390;28;20979;-74
2023/10/30 03:10:41;;;;;;;1.90;1.50;;;;;;;12.72;89.22;96997.66;5050181;28;20955;-75
2023/10/30 03:13:08;;;;;;;2.58;1.30;;;;;;;12.61;89.94;96999.38;5052405;28;20193;-75
2023/10/30 03:15:34;;;;;;;1.75;1.25;;;;;;;12.80;88.33;97000.00;5049490;28;20215;-75
2023/10/30 03:18:02;;;;;;;1.85;1.33;;;;;;;12.68;89.45;97005.47;5044630;28;20316;-75
2023/10/30 03:20:28;;;;;;;3.55;1.63;;;;;;;12.68;89.03;97008.19;5048185;28;20308;-75
2023/10/30 03:22:55;;;;;;;3.63;2.47;;;;;;;12.42;90.93;97008.72;5048279;28;20197;-75
2023/10/30 03:25:21;;;;;;;2.40;2.20;;;;;;;12.58;90.19;97008.00;5047344;28;20611;-75
2023/10/30 03:27:48;;;;;;;4.40;4.10;;;;;;;12.31;90.47;97002.28;5050453;28;20474;-75
2023/10/30 03:30:15;;;;;;;4.53;4.23;;;;;;;12.24;92.56;96992.63;5049657;28;20211;-74
2023/10/30 03:32:42;;;;;;;4.05;3.83;;;;;;;12.16;92.66;96982.13;5050049;28;20455;-75
2023/10/30 03:35:10;;;;;;;4.55;4.15;;;;;;;12.14;93.23;96979.66;5049917;28;20665;-75
2023/10/30 03:37:37;;;;;;;4.20;3.90;;;;;;;12.08;93.63;96970.56;5046397;28;20228;-75
2023/10/30 03:40:05;;;;;;;5.28;4.70;;;;;;;11.94;93.98;96976.50;5047725;28;20650;-75
2023/10/30 03:42:32;;;;;;;4.75;4.35;;;;;;;11.88;94.30;96985.56;5049241;28;20208;-75
2023/10/30 03:44:58;;;;;;;3.65;3.35;;;;;;;11.72;95.65;96987.88;5050239;28;20251;-75
2023/10/30 03:47:24;;;;;;;4.20;3.38;;;;;;;11.78;95.23;96986.16;5048553;28;20534;-75
2023/10/30 03:49:51;;;;;;;4.95;4.55;;;;;;;11.78;95.13;96975.31;5051068;28;20240;-75
2023/10/30 03:52:19;;;;;;;4.60;4.30;;;;;;;11.72;94.98;96970.81;5049166;28;20201;-75
2023/10/30 03:54:46;;;;;;;6.10;5.05;;;;;;;11.63;95.00;96974.94;5046301;28;20201;-75
2023/10/30 03:57:12;;;;;;;5.22;4.82;;;;;;;11.49;96.00;96977.03;5049195;28;20778;-75
2023/10/30 03:59:39;;;;;;;5.93;5.15;;;;;;;11.43;96.72;96967.13;5049090;28;20656;-75
2023/10/30 04:02:05;;;;;;;5.70;5.30;;;;;;;11.36;97.51;96966.44;5048471;28;20207;-76
2023/10/30 04:04:32;;;;;;;6.38;5.88;;;;;;;11.39;97.35;96952.41;5046961;28;20212;-75
2023/10/30 04:06:58;;;;;;;5.30;4.80;;;;;;;11.40;97.47;96959.47;5049571;28;20255;-75
2023/10/30 04:09:26;;;;;;;5.50;5.10;;;;;;;11.18;98.05;96959.22;5049386;28;20193;-75
2023/10/30 04:11:52;;;;;;;5.63;5.13;;;;;;;11.12;98.07;96960.13;5048759;28;20664;-75
2023/10/30 04:14:19;;;;;;;6.75;5.63;;;;;;;11.05;98.88;96954.00;5045681;28;20208;-74
2023/10/30 04:16:45;;;;;;;5.93;5.18;;;;;;;11.08;98.75;96953.53;5047182;28;20229;-75
2023/10/30 04:19:12;;;;;;;4.50;4.15;;;;;;;11.06;98.41;96953.75;5048968;28;20211;-75
2023/10/30 04:21:38;;;;;;;4.57;4.18;;;;;;;11.08;98.11;96948.13;5047167;28;20212;-75
2023/10/30 04:24:05;;;;;;;4.80;4.50;;;;;;;11.04;98.30;96952.38;5048693;28;20203;-75
2023/10/30 04:26:33;;;;;;;4.90;4.50;;;;;;;10.94;98.66;96952.94;5047908;28;20209;-74
2023/10/30 04:29:00;;;;;;;5.05;4.65;;;;;;;11.02;98.76;96959.91;5049594;28;20212;-75
2023/10/30 04:31:26;;;;;;;5.32;4.93;;;;;;;11.03;98.59;96956.13;5045746;28;20595;-75
2023/10/30 04:33:53;;;;;;;3.70;3.50;;;;;;;11.14;97.53;96955.31;5049479;28;20197;-75
2023/10/30 04:36:19;;;;;;;4.50;4.20;;;;;;;11.14;97.42;96952.59;5042200;28;20611;-75
2023/10/30 04:38:45;;;;;;;6.05;4.03;;;;;;;11.19;96.70;96954.63;5048315;28;20251;-75
2023/10/30 04:41:12;;;;;;;3.55;3.25;;;;;;;11.25;96.54;96940.97;5048375;28;20203;-73
2023/10/30 04:43:40;;;;;;;3.40;3.10;;;;;;;11.30;96.74;96941.09;5047197;28;20200;-75
2023/10/30 04:46:06;;;;;;;3.53;3.22;;;;;;;11.34;96.75;96936.06;5049139;28;20220;-75
2023/10/30 04:48:33;;;;;;;3.40;3.15;;;;;;;11.30;97.21;96938.41;5050165;28;20228;-75
2023/10/30 04:50:59;;;;;;;3.63;3.00;;;;;;;11.44;96.31;96942.50;5045806;28;20201;-75
2023/10/30 04:53:28;;;;;;;3.63;3.33;;;;;;;11.42;96.15;96938.41;5049087;28;20197;-74
2023/10/30 04:55:55;;;;;;;3.55;2.70;;;;;;;11.34;96.32;96931.47;5040388;28;20220;-75
2023/10/30 04:58:21;;;;;;;4.25;3.10;;;;;;;11.36;96.57;96933.94;5049095;28;20231;-75
2023/10/30 05:00:49;;;;;;;3.97;2.75;;;;;;;11.32;96.82;96944.41;5046863;28;20667;-74
2023/10/30 05:03:16;;;;;;;2.90;2.70;;;;;;;11.34;96.48;96946.88;5049246;28;20201;-76
2023/10/30 05:05:42;;;;;;;3.58;3.28;;;;;;;11.48;95.91;96948.28;5046299;28;20204;-74
2023/10/30 05:08:09;;;;;;;3.45;3.15;;;;;;;11.50;95.57;96950.78;5047859;28;20221;-75
2023/10/30 05:10:35;;;;;;;3.08;2.65;;;;;;;11.48;95.84;96961.84;5049675;28;20197;-75
2023/10/30 05:13:02;;;;;;;3.10;2.83;;;;;;;11.44;96.42;96947.94;5046531;28;20192;-74
2023/10/30 05:15:28;;;;;;;2.60;2.40;;;;;;;11.56;95.92;96953.38;5045859;28;20201;-75
2023/10/30 05:17:56;;;;;;;3.50;3.20;;;;;;;11.48;96.01;96963.72;5047064;28;20692;-75
2023/10/30 05:20:22;;;;;;;2.40;2.25;;;;;;;11.52;95.96;96957.59;5048463;28;20205;-75
2023/10/30 05:22:49;;;;;;;3.25;3.05;;;;;;;11.69;94.83;96949.63;5048953;28;20201;-75
2023/10/30 05:25:16;;;;;;;2.85;2.65;;;;;;;11.66;95.25;96942.78;5042648;28;20204;-76
2023/10/30 05:27:44;;;;;;;3.08;2.88;;;;;;;11.63;95.12;96923.44;5046593;28;20217;-75
2023/10/30 05:30:11;;;;;;;3.40;3.10;;;;;;;11.28;96.65;96921.56;5046827;28;20233;-75
2023/10/30 05:32:38;;;;;;;3.35;3.03;;;;;;;11.25;97.06;96918.50;5048256;28;20211;-75
2023/10/30 05:35:06;;;;;;;3.38;3.08;;;;;;;11.39;96.41;96918.00;5047965;28;20204;-75
2023/10/30 05:37:33;;;;;;;3.35;3.08;;;;;;;11.33;96.24;96912.72;5043666;28;20584;-76
2023/10/30 05:40:00;;;;;;;2.97;2.78;;;;;;;11.35;96.36;96916.03;5044094;28;20219;-75
2023/10/30 05:42:26;;;;;;;3.90;3.60;;;;;;;11.21;95.84;96890.22;5048048;28;20644;-76
2023/10/30 05:44:53;;;;;;;3.70;3.40;;;;;;;11.26;96.35;96918.25;5047695;28;20279;-77
2023/10/30 05:47:19;;;;;;;3.20;3.00;;;;;;;11.16;96.77;96923.41;5043614;28;20224;-77
2023/10/30 05:49:46;;;;;;;3.88;3.58;;;;;;;11.23;96.64;96898.94;5040791;28;20197;-77
2023/10/30 05:52:14;;;;;;;4.05;3.75;;;;;;;10.92;98.28;96906.31;5047514;28;20197;-76
2023/10/30 05:54:40;;;;;;;3.40;3.10;;;;;;;11.03;98.09;96899.28;5046567;28;20201;-75
2023/10/30 05:57:07;;;;;;;3.92;3.63;;;;;;;11.02;97.98;96903.03;5047022;28;20311;-75
2023/10/30 05:59:33;;;;;;;3.38;3.08;;;;;;;11.09;97.48;96906.44;5042190;28;20295;-75
2023/10/30 06:02:00;;;;;;;3.08;2.88;;;;;;;11.12;97.18;96903.28;5044890;28;20185;-74
2023/10/30 06:04:27;;;;;;;4.93;4.20;;;;;;;11.10;96.34;96902.69;5044852;28;20270;-75
2023/10/30 06:06:53;;;;;;;3.92;3.60;;;;;;;10.92;97.53;96905.50;5045991;28;20225;-77
2023/10/30 06:09:21;;;;;;;5.38;4.40;;;;;;;11.00;96.81;96892.44;5045653;28;20212;-75
2023/10/30 06:11:48;;;;;;;4.05;3.75;;;;;;;10.96;97.24;96883.13;5046875;28;20216;-76
2023/10/30 06:14:15;;;;;;;3.90;3.60;;;;;;;10.73;98.04;96883.06;5044995;28;20205;-78
2023/10/30 06:16:43;;;;;;;3.97;3.67;;;;;;;10.84;98.04;96886.88;5032781;28;20308;-79
2023/10/30 06:19:09;;;;;;;4.00;3.70;;;;;;;10.84;97.75;96881.44;5042404;28;20204;-78
2023/10/30 06:21:36;;;;;;;3.70;3.40;;;;;;;10.85;97.38;96883.09;5038328;28;20300;-75
2023/10/30 06:24:03;;;;;;;4.97;4.57;;;;;;;10.85;97.48;96893.94;5041801;28;20231;-77
2023/10/30 06:26:30;;;;;;;3.15;2.95;;;;;;;10.77;97.54;96895.09;5043720;28;20770;-78
2023/10/30 06:28:57;;;;;;;5.13;4.15;;;;;;;10.73;97.88;96896.59;5041348;28;20542;-77
2023/10/30 06:31:23;;;;;;;4.18;3.85;;;;;;;10.73;97.59;96892.00;5043685;28;20282;-78
2023/10/30 06:33:51;;;;;;;3.65;3.45;;;;;;;10.92;97.57;96892.78;5038911;28;20199;-79
2023/10/30 06:36:17;;;;;;;3.72;3.42;;;;;;;11.00;97.08;96900.56;5043385;28;20224;-77
2023/10/30 06:38:44;;;;;;;3.45;3.25;;;;;;;11.14;96.37;96909.28;5044220;28;20230;-77
2023/10/30 06:41:10;;;;;;;4.18;3.78;;;;;;;11.12;95.51;96911.41;5046731;28;20188;-77
2023/10/30 06:43:39;;;;;;;5.32;5.00;;;;;;;11.14;96.49;96919.28;5040760;28;20557;-76
2023/10/30 06:46:06;;;;;;;3.15;2.95;;;;;;;11.31;96.65;96904.84;5047641;28;20228;-73
2023/10/30 06:48:33;;;;;;;3.47;3.10;;;;;;;11.09;96.74;96912.69;5040533;28;20272;-77
2023/10/30 06:50:59;;;;;;;4.00;3.70;;;;;;;11.27;96.77;96928.03;5038532;28;20211;-77
2023/10/30 06:53:26;;;;;;;3.45;3.15;;;;;;;11.40;95.84;96922.38;5040561;28;20201;-72
2023/10/30 06:55:53;;;;;;;2.80;2.60;;;;;;;11.59;94.23;96928.50;5044550;28;20668;-76
2023/10/30 06:58:21;;;;;;;3.10;2.90;;;;;;;11.68;94.82;96916.25;5042734;28;20237;-77
2023/10/30 07:00:49;;;;;;;3.28;3.08;;;;;;;11.77;94.16;96908.59;5045971;28;20645;-77
2023/10/30 07:03:15;;;;;;;2.58;2.38;;;;;;;12.13;92.90;96901.22;5046353;28;20661;-77
2023/10/30 07:05:42;;;;;;;2.28;2.08;;;;;;;12.54;90.69;96903.69;5324599;22;20234;-75
2023/10/30 07:08:09;;;;;;;2.40;2.30;;;;;;;13.20;91.37;96907.59;5061172;28;20223;-74
2023/10/30 07:10:36;;;;;;;1.90;1.80;;;;;;;14.11;83.49;96908.13;5062986;28;20193;-76
2023/10/30 07:13:02;;;;;;;1.83;1.57;;;;;;;14.43;79.90;96914.53;5062241;28;20201;-74
2023/10/30 07:15:29;;;;;;;1.50;1.40;;;;;;;15.01;76.16;96912.16;5060084;28;20499;-75
2023/10/30 07:17:57;;;;;;;2.30;1.70;;;;;;;15.93;72.92;96913.69;5062573;28;20566;-75
2023/10/30 07:20:24;;;;;;;2.03;1.40;;;;;;;16.34;69.67;96920.19;5066175;28;20449;-79
2023/10/30 07:22:50;;;;;;;1.60;1.50;;;;;;;16.62;68.10;96919.75;5063146;28;20892;-81
2023/10/30 07:25:17;;;;;;;1.40;1.30;;;;;;;17.38;66.00;96917.19;5059035;28;20470;-75
2023/10/30 07:27:44;;;;;;;2.07;1.40;;;;;;;17.35;64.77;96915.00;5060727;28;20450;-81
2023/10/30 07:30:12;;;;;;;1.83;1.50;;;;;;;17.30;65.05;96917.75;5056571;28;20450;-74
2023/10/30 07:32:38;;;;;;;1.70;1.30;;;;;;;16.81;65.89;96908.38;5061165;28;20463;-73
2023/10/30 07:35:07;;;;;;;1.27;1.17;;;;;;;16.46;66.98;96912.63;5038596;28;20556;-74
2023/10/30 07:37:35;;;;;;;2.30;1.67;;;;;;;16.39;67.99;96906.56;5052280;28;20628;-74
2023/10/30 07:40:02;;;;;;;1.43;1.30;;;;;;;16.19;68.87;96918.25;5054623;28;20450;-74
2023/10/30 07:42:28;;;;;;;2.20;1.40;;;;;;;17.00;66.47;96902.13;5060122;28;20472;-74
2023/10/30 07:44:55;;;;;;;1.63;1.23;;;;;;;17.02;66.22;96899.94;5060560;28;20480;-74
2023/10/30 07:47:21;;;;;;;2.13;1.37;;;;;;;17.51;65.08;96893.13;5042198;28;20454;-74
2023/10/30 07:49:48;;;;;;;1.50;1.30;;;;;;;17.58;63.96;96899.13;5054536;28;20467;-74
2023/10/30 07:52:16;;;;;;;2.50;1.30;;;;;;;17.85;63.42;96893.41;5063011;28;20983;-74
2023/10/30 07:54:42;;;;;;;1.60;1.50;;;;;;;17.21;65.12;96902.16;5059991;28;20500;-74
2023/10/30 07:57:09;;;;;;;2.03;1.50;;;;;;;16.70;66.99;96900.16;5063502;28;20457;-79
2023/10/30 07:59:36;;;;;;;1.50;1.40;;;;;;;16.78;66.75;96885.97;5052526;28;20474;-74
2023/10/30 08:02:04;;;;;;;1.50;1.40;;;;;;;16.93;66.51;96884.34;5059853;28;20459;-76
2023/10/30 08:04:30;;;;;;;2.30;1.80;;;;;;;16.99;65.94;96894.19;5060822;28;21257;-74
2023/10/30 08:06:57;;;;;;;1.80;1.60;;;;;;;16.73;65.62;96888.69;5061014;28;20451;-75
2023/10/30 08:09:25;;;;;;;1.70;1.60;;;;;;;16.27;67.46;96884.94;5044831;28;20463;-77
2023/10/30 08:11:52;;;;;;;2.03;1.80;;;;;;;16.44;67.87;96882.03;5059932;28;20486;-74
2023/10/30 08:14:18;;;;;;;1.73;1.63;;;;;;;16.25;68.97;96878.09;5040575;28;20455;-74
2023/10/30 08:16:45;;;;;;;2.30;1.90;;;;;;;16.10;68.59;96871.50;5057791;28;20949;-74
2023/10/30 08:19:11;;;;;;;1.70;1.60;;;;;;;16.58;68.87;96866.75;5059588;28;20581;-74
2023/10/30 08:21:38;;;;;;;2.47;2.00;;;;;;;16.54;67.41;96873.03;5057612;28;20463;-75
2023/10/30 08:24:06;;;;;;;2.40;2.20;;;;;;;16.35;67.58;96861.75;5055066;28;20466;-74
2023/10/30 08:26:34;;;;;;;2.73;1.90;;;;;;;16.93;66.81;96879.69;5061318;28;21134;-74
2023/10/30 08:29:00;;;;;;;2.10;2.00;;;;;;;17.77;62.85;96873.69;5067448;28;20450;-74
2023/10/30 08:31:27;;;;;;;2.13;2.03;;;;;;;18.04;62.31;96867.88;5058387;28;20458;-75
2023/10/30 08:33:54;;;;;;;1.90;1.80;;;;;;;17.88;61.95;96862.72;5057326;28;20478;-74
2023/10/30 08:36:21;;;;;;;2.30;2.10;;;;;;;17.26;63.46;96867.41;5065616;28;20577;-75
2023/10/30 08:38:48;;;;;;;2.20;2.00;;;;;;;17.53;64.10;96855.38;5060712;28;20490;-74
2023/10/30 08:41:15;;;;;;;2.40;2.17;;;;;;;17.37;64.72;96849.09;5061464;28;20463;-74
2023/10/30 08:43:43;;;;;;;2.40;2.20;;;;;;;17.73;62.75;96849.91;5063690;28;20485;-74
2023/10/30 08:46:10;;;;;;;3.23;2.00;;;;;;;17.88;62.49;96852.56;5065242;28;20462;-75
2023/10/30 08:48:36;;;;;;;3.97;2.20;;;;;;;18.05;61.99;96857.75;5060633;28;20482;-75
2023/10/30 08:51:04;;;;;;;2.70;2.50;;;;;;;18.55;60.76;96859.44;5053422;28;20478;-75
2023/10/30 08:53:31;;;;;;;2.70;2.40;;;;;;;18.47;59.96;96849.09;5056300;28;20937;-75
2023/10/30 08:55:57;;;;;;;2.53;2.20;;;;;;;18.51;60.23;96855.66;5063411;28;20545;-73
2023/10/30 08:58:24;;;;;;;2.30;2.10;;;;;;;18.58;60.07;96839.69;5063533;28;20480;-77
2023/10/30 09:00:53;;;;;;;2.80;2.63;;;;;;;19.08;57.99;96843.25;5060503;28;20454;-74
2023/10/30 09:03:20;;;;;;;2.80;2.60;;;;;;;19.28;58.14;96837.56;5059428;28;20462;-75
2023/10/30 09:05:47;;;;;;;3.03;2.80;;;;;;;19.31;57.35;96847.16;5063172;28;20510;-75
2023/10/30 09:08:13;;;;;;;2.20;2.10;;;;;;;19.66;57.93;96835.88;5058133;28;20456;-76
2023/10/30 09:10:40;;;;;;;2.63;2.43;;;;;;;19.77;56.11;96820.94;5064224;28;20445;-75
2023/10/30 09:13:06;;;;;;;2.20;2.10;;;;;;;19.68;56.50;96835.59;5055467;28;20471;-74
2023/10/30 09:15:33;;;;;;;3.03;2.83;;;;;;;20.46;55.00;96832.53;5060631;28;20468;-75
2023/10/30 09:18:01;;;;;;;3.77;3.47;;;;;;;19.45;55.44;96832.50;5054251;28;20465;-74
2023/10/30 09:20:27;;;;;;;2.83;2.63;;;;;;;18.93;57.37;96829.63;5051826;28;20451;-74
2023/10/30 09:22:54;;;;;;;3.40;3.10;;;;;;;19.33;57.11;96823.81;5057535;28;20460;-74
2023/10/30 09:25:21;;;;;;;2.97;2.67;;;;;;;18.90;57.49;96820.03;5053627;28;21016;-73
2023/10/30 09:27:50;;;;;;;3.00;2.80;;;;;;;18.00;60.50;96822.97;5062644;28;20474;-74
2023/10/30 09:30:16;;;;;;;3.43;3.13;;;;;;;18.62;59.70;96812.56;5058708;28;20529;-74
2023/10/30 09:32:43;;;;;;;3.47;3.20;;;;;;;18.31;59.54;96825.59;5057485;28;21010;-76
2023/10/30 09:35:11;;;;;;;3.00;2.53;;;;;;;18.06;61.41;96821.06;5060446;28;20469;-74
2023/10/30 09:37:39;;;;;;;4.40;2.97;;;;;;;18.39;60.29;96819.53;5065321;28;20452;-76
2023/10/30 09:40:08;;;;;;;3.23;2.93;;;;;;;18.95;59.63;96810.97;5060416;28;20515;-74
2023/10/30 09:42:35;;;;;;;2.70;2.50;;;;;;;18.85;59.06;96817.34;5063959;28;20467;-74
2023/10/30 09:45:02;;;;;;;3.30;3.00;;;;;;;18.38;59.79;96810.50;5063328;28;20473;-80
2023/10/30 09:47:29;;;;;;;2.90;2.37;;;;;;;18.71;59.08;96806.22;5059441;28;20473;-74
2023/10/30 09:49:56;;;;;;;3.30;3.00;;;;;;;18.35;59.84;96815.72;5061413;28;20965;-74
2023/10/30 09:52:26;;;;;;;2.80;2.70;;;;;;;18.78;59.06;96814.13;5065653;28;20469;-74
2023/10/30 09:54:53;;;;;;;2.93;2.73;;;;;;;18.76;59.31;96814.41;5063161;28;20470;-74
2023/10/30 09:57:20;;;;;;;2.80;2.60;;;;;;;18.71;59.11;96806.22;5065873;28;20953;-74
2023/10/30 09:59:53;;;;;;;2.70;2.50;;;;;;;18.54;60.96;96808.47;5060633;28;20491;-74
2023/10/30 10:02:20;;;;;;;4.00;2.77;;;;;;;18.49;60.63;96805.78;5058991;28;20954;-79
2023/10/30 10:04:46;;;;;;;3.23;2.93;;;;;;;18.56;60.62;96813.66;5055157;28;20478;-80
2023/10/30 10:07:13;;;;;;;2.93;2.23;;;;;;;19.00;60.13;96802.69;5061229;28;20577;-81
2023/10/30 10:10:00;;;;;;;2.70;2.50;;;;;;;19.37;56.65;96794.69;5062607;28;20445;-84
2023/10/30 10:12:27;;;;;;;2.63;2.40;;;;;;;19.43;56.79;96785.31;5061088;28;20470;-83
2023/10/30 10:14:53;;;;;;;3.03;2.40;;;;;;;19.00;57.98;96792.56;5062807;28;20470;-82
2023/10/30 10:17:20;;;;;;;2.40;2.20;;;;;;;19.19;57.13;96784.44;5061863;28;20454;-81
2023/10/30 10:19:47;;;;;;;3.03;2.50;;;;;;;19.27;56.51;96774.75;5065102;28;20486;-81
2023/10/30 10:22:27;;;;;;;3.20;2.27;;;;;;;19.11;57.59;96772.16;5062943;28;20538;-81
2023/10/30 10:24:53;;;;;;;1.90;1.80;;;;;;;19.03;56.91;96766.47;5063722;28;20471;-81
2023/10/30 10:27:21;;;;;;;2.40;2.10;;;;;;;19.06;56.72;96763.16;5062879;28;20840;-77
2023/10/30 10:29:52;;;;;;;1.97;1.77;;;;;;;18.65;58.43;96768.97;5065456;28;20451;-78
2023/10/30 10:32:19;;;;;;;2.20;1.70;;;;;;;18.82;58.03;96774.06;5063550;28;20466;-76
2023/10/30 10:34:48;;;;;;;1.70;1.60;;;;;;;18.25;60.05;96750.00;5064338;28;20475;-76
2023/10/30 10:37:18;;;;;;;2.10;2.00;;;;;;;18.16;60.50;96746.25;5064574;28;20471;-75
2023/10/30 10:39:49;;;;;;;1.57;1.47;;;;;;;17.62;61.15;96736.03;5064124;28;20914;-76
2023/10/30 10:42:18;;;;;;;1.60;1.50;;;;;;;17.14;63.80;96732.91;5067141;28;20458;-75
2023/10/30 10:44:47;;;;;;;2.17;1.40;;;;;;;17.46;62.01;96727.09;5062860;28;20470;-76
2023/10/30 10:47:13;;;;;;;1.53;1.43;;;;;;;17.40;62.68;96726.28;5058193;28;20458;-76
2023/10/30 10:49:40;;;;;;;2.87;1.43;;;;;;;17.37;63.19;96723.28;5059300;28;21907;-76
2023/10/30 10:52:09;;;;;;;1.40;1.10;;;;;;;17.13;62.84;96721.16;5064338;28;20767;-76
2023/10/30 10:54:43;;;;;;;1.30;1.20;;;;;;;16.95;64.26;96723.63;5063577;28;20474;-76
2023/10/30 10:57:10;;;;;;;1.83;1.40;;;;;;;16.77;65.66;96706.72;5062901;28;21036;-76
2023/10/30 10:59:37;;;;;;;1.77;1.67;;;;;;;16.55;65.31;96703.41;5062565;28;20481;-77
2023/10/30 11:02:10;;;;;;;1.40;1.30;;;;;;;16.47;65.90;96706.69;5064568;28;20453;-75
2023/10/30 11:04:37;;;;;;;1.50;1.40;;;;;;;16.39;66.80;96701.75;5066531;28;20841;-74
2023/10/30 11:07:09;;;;;;;1.33;1.23;;;;;;;16.43;66.89;96708.31;5064918;28;20482;-75
2023/10/30 11:09:41;;;;;;;1.77;1.20;;;;;;;16.40;67.34;96703.41;5068975;28;20462;-75
2023/10/30 11:12:12;;;;;;;1.97;1.27;;;;;;;15.89;67.85;96705.22;5069936;28;20496;-75
2023/10/30 11:14:45;;;;;;;2.20;1.20;;;;;;;15.98;67.78;96698.97;5068033;28;20980;-74
2023/10/30 11:17:13;;;;;;;1.30;1.20;;;;;;;15.97;67.63;96686.41;5061399;28;20982;-77
2023/10/30 11:19:40;;;;;;;1.80;1.10;;;;;;;16.07;67.62;96680.97;5068086;28;20569;-76
2023/10/30 11:22:07;;;;;;;1.70;1.17;;;;;;;15.92;67.28;96680.94;5061744;28;20464;-76
2023/10/30 11:24:38;;;;;;;1.20;1.10;;;;;;;15.91;67.46;96673.84;5065036;28;20478;-74
2023/10/30 11:27:34;;;;;;;2.00;1.20;;;;;;;15.59;68.25;96684.13;5062039;28;20770;-74
2023/10/30 11:30:04;;;;;;;2.07;1.20;;;;;;;15.58;68.75;96671.59;5063741;28;20475;-74
2023/10/30 11:32:37;;;;;;;1.10;1.00;;;;;;;15.57;68.66;96681.66;5066231;28;20553;-77
2023/10/30 11:35:04;;;;;;;1.17;1.00;;;;;;;15.39;69.31;96674.75;5066765;28;20466;-89